createdAt,value
2019-05-19T00:02:01.564Z,1004.49
2019-05-19T00:17:01.801Z,1004.56
2019-05-19T00:32:02.003Z,1004.59
2019-05-19T00:47:02.205Z,1004.54
2019-05-19T01:02:02.425Z,1004.49
2019-05-19T01:17:02.704Z,1004.53
2019-05-19T01:32:02.747Z,1004.49
2019-05-19T01:47:02.864Z,1004.48
2019-05-19T02:02:03.472Z,1004.44
2019-05-19T02:17:03.570Z,1004.45
2019-05-19T02:32:03.769Z,1004.46
2019-05-19T02:47:03.912Z,1004.42
2019-05-19T03:02:04.082Z,1004.47
2019-05-19T03:17:04.208Z,1004.44
2019-05-19T03:32:11.289Z,1004.47
2019-05-19T03:47:09.536Z,1004.44
2019-05-19T04:02:09.721Z,1004.38
2019-05-19T04:17:09.859Z,1004.49
2019-05-19T04:32:10.043Z,1004.72
2019-05-19T04:47:10.198Z,1004.67
2019-05-19T05:02:11.307Z,1004.69
2019-05-19T05:17:11.475Z,1004.67
2019-05-19T05:32:11.623Z,1004.61
2019-05-19T05:47:11.789Z,1004.65
2019-05-19T06:02:11.959Z,1004.63
2019-05-19T06:17:12.080Z,1004.73
2019-05-19T06:32:12.251Z,1004.81
2019-05-19T06:47:12.391Z,1004.64
2019-05-19T07:02:12.513Z,1004.64
2019-05-19T07:17:12.723Z,1004.55
2019-05-19T07:32:12.919Z,1004.54
2019-05-19T07:47:13.033Z,1004.40
2019-05-19T08:02:13.239Z,1004.35
2019-05-19T08:17:13.424Z,1004.41
2019-05-19T08:32:13.628Z,1004.15
2019-05-19T08:47:13.839Z,1004.05
2019-05-19T09:02:13.949Z,1003.97
2019-05-19T09:17:14.165Z,1003.90
2019-05-19T09:32:14.352Z,1003.88
2019-05-19T09:47:14.582Z,1003.80
2019-05-19T10:02:14.780Z,1003.77
2019-05-19T10:17:14.994Z,1003.73
2019-05-19T10:32:16.619Z,1003.56
2019-05-19T10:47:16.342Z,1003.57
2019-05-19T11:02:16.949Z,1003.55
2019-05-19T11:17:17.165Z,1003.35
2019-05-19T11:32:17.279Z,1003.32
2019-05-19T11:47:17.497Z,1003.17
2019-05-19T12:02:17.595Z,1003.04
2019-05-19T12:17:17.723Z,1003.03
2019-05-19T12:32:17.792Z,1002.95
2019-05-19T12:47:18.216Z,1002.84
2019-05-19T13:02:18.395Z,1002.72
2019-05-19T13:17:18.531Z,1002.81
2019-05-19T13:32:18.738Z,1002.78
2019-05-19T13:47:18.856Z,1002.93
2019-05-19T14:02:19.156Z,1002.78
2019-05-19T14:17:19.380Z,1002.83
2019-05-19T14:32:19.482Z,1002.60
2019-05-19T14:47:19.684Z,1002.48
2019-05-19T15:02:20.090Z,1002.41
2019-05-19T15:17:20.116Z,1002.41
2019-05-19T15:32:20.323Z,1002.33
2019-05-19T15:47:21.058Z,1002.22
2019-05-19T16:02:21.246Z,1002.17
2019-05-19T16:17:22.377Z,1001.97
2019-05-19T16:32:22.496Z,1001.95
2019-05-19T16:47:22.695Z,1001.88
2019-05-19T17:02:22.907Z,1001.93
2019-05-19T17:17:23.097Z,1001.82
2019-05-19T17:32:23.211Z,1001.98
2019-05-19T17:47:23.336Z,1001.86
2019-05-19T18:02:23.540Z,1001.92
2019-05-19T18:17:23.642Z,1001.97
2019-05-19T18:32:23.734Z,1002.04
2019-05-19T18:47:23.980Z,1002.28
2019-05-19T19:02:24.143Z,1002.28
2019-05-19T19:17:24.268Z,1002.25
2019-05-19T19:32:24.955Z,1002.35
2019-05-19T19:47:25.078Z,1002.19
2019-05-19T20:02:25.210Z,1002.22
2019-05-19T20:17:25.478Z,1002.25
2019-05-19T20:32:25.627Z,1002.30
2019-05-19T20:47:25.858Z,1002.25
2019-05-19T21:02:25.947Z,1002.33
2019-05-19T21:17:26.132Z,1002.16
2019-05-19T21:32:26.331Z,1002.37
2019-05-19T21:47:26.508Z,1002.30
2019-05-19T22:02:26.659Z,1002.38
2019-05-19T22:17:26.800Z,1002.36
2019-05-19T22:32:26.928Z,1002.30
2019-05-19T22:47:27.107Z,1002.16
2019-05-19T23:02:27.334Z,1002.02
2019-05-19T23:17:27.419Z,1001.99
2019-05-19T23:32:27.588Z,1001.88
2019-05-19T23:47:27.766Z,1001.77
